sim
Sign-in with your pilot id or email,
or register
Callsign
Passwort

Schedule Details

Flight Number: DLH1837
Departure: Fuerteventura Airport (GCFV) at 13:35
Arrival: Munich Airport (EDDM) at 18:05
Route: Lufthansa Passenger Schedule. Enter filed route here before submitting Pirep.

Weather Information
Getting current METAR information for GCFV 190300Z AUTO 03015KT 9999 FEW017 22/19 Q1017
Getting current METAR information for EDDM 190250Z 07003KT CAVOK 05/04 Q1020 NOSIG

Schedule Frequency

Route Map